createdAt,value
2022-10-05T00:00:48.648Z,49.84
2022-10-05T00:03:18.425Z,49.63
2022-10-05T00:05:49.011Z,49.53
2022-10-05T00:08:24.312Z,49.60
2022-10-05T00:10:56.950Z,49.65
2022-10-05T00:13:28.991Z,49.53
2022-10-05T00:16:02.477Z,49.64
2022-10-05T00:18:32.291Z,49.58
2022-10-05T00:21:02.815Z,49.54
2022-10-05T00:23:35.446Z,49.65
2022-10-05T00:26:14.624Z,49.55
2022-10-05T00:28:44.533Z,49.47
2022-10-05T00:31:19.515Z,49.62
2022-10-05T00:33:49.779Z,49.61
2022-10-05T00:36:20.093Z,49.65
2022-10-05T00:38:50.144Z,49.77
2022-10-05T00:41:27.491Z,49.71
2022-10-05T00:44:27.132Z,49.55
2022-10-05T00:47:00.104Z,49.58
2022-10-05T00:49:48.620Z,49.70
2022-10-05T00:52:28.231Z,49.59
2022-10-05T00:55:08.633Z,49.69
2022-10-05T00:57:53.777Z,49.78
2022-10-05T01:00:27.647Z,49.57
2022-10-05T01:03:06.798Z,49.61
2022-10-05T01:05:51.626Z,49.54
2022-10-05T01:08:32.440Z,49.75
2022-10-05T01:11:10.422Z,49.53
2022-10-05T01:13:52.304Z,49.54
2022-10-05T01:16:30.547Z,49.52
2022-10-05T01:19:09.240Z,49.98
2022-10-05T01:21:46.220Z,49.84
2022-10-05T01:24:47.705Z,49.82
2022-10-05T01:27:41.052Z,49.82
2022-10-05T01:30:14.870Z,49.82
2022-10-05T01:32:51.477Z,49.95
2022-10-05T01:35:33.638Z,49.77
2022-10-05T01:38:15.438Z,49.70
2022-10-05T01:40:57.853Z,49.87
2022-10-05T01:43:35.940Z,49.82
2022-10-05T01:46:13.120Z,49.96
2022-10-05T01:48:54.845Z,49.78
2022-10-05T01:51:30.508Z,49.92
2022-10-05T01:54:08.492Z,49.88
2022-10-05T01:56:46.156Z,49.96
2022-10-05T01:59:32.328Z,49.97
2022-10-05T02:02:06.075Z,49.83
2022-10-05T02:05:01.474Z,49.81
2022-10-05T02:07:39.322Z,49.68
2022-10-05T02:10:17.662Z,49.74
2022-10-05T02:12:51.783Z,49.77
2022-10-05T02:15:29.327Z,49.74
2022-10-05T02:18:05.542Z,49.85
2022-10-05T02:20:40.332Z,49.84
2022-10-05T02:23:17.285Z,49.91
2022-10-05T02:25:50.358Z,49.93
2022-10-05T02:28:26.255Z,49.84
2022-10-05T02:31:04.657Z,49.72
2022-10-05T02:33:36.280Z,50.17
2022-10-05T02:36:17.617Z,50.16
2022-10-05T02:39:05.519Z,50.24
2022-10-05T02:41:48.978Z,50.47
2022-10-05T02:44:29.776Z,50.27
2022-10-05T02:47:11.697Z,50.41
2022-10-05T02:49:47.540Z,50.42
2022-10-05T02:52:23.089Z,50.41
2022-10-05T02:55:01.415Z,50.39
2022-10-05T02:57:34.583Z,50.40
2022-10-05T03:00:11.019Z,50.34
2022-10-05T03:02:48.395Z,50.47
2022-10-05T03:05:24.829Z,50.66
2022-10-05T03:08:03.335Z,50.98
2022-10-05T03:10:43.743Z,50.57
2022-10-05T03:13:24.237Z,50.56
2022-10-05T03:16:08.992Z,50.56
2022-10-05T03:18:52.859Z,50.60
2022-10-05T03:21:34.611Z,50.72
2022-10-05T03:24:20.310Z,50.68
2022-10-05T03:27:01.961Z,50.81
2022-10-05T03:29:41.903Z,50.66
2022-10-05T03:32:25.555Z,50.62
2022-10-05T03:35:06.358Z,50.61
2022-10-05T03:37:49.441Z,50.69
2022-10-05T03:40:29.625Z,50.61
2022-10-05T03:43:09.128Z,50.87
2022-10-05T03:45:48.238Z,50.68
2022-10-05T03:48:22.739Z,50.70
2022-10-05T03:51:04.535Z,50.65
2022-10-05T03:53:42.155Z,50.67
2022-10-05T03:56:17.467Z,51.00
2022-10-05T03:58:56.461Z,51.02
2022-10-05T04:01:34.537Z,51.06
2022-10-05T04:04:10.021Z,50.87
2022-10-05T04:06:49.508Z,51.19
2022-10-05T04:09:25.583Z,50.96
2022-10-05T04:12:05.197Z,51.12
2022-10-05T04:14:41.452Z,51.26
2022-10-05T04:17:15.138Z,51.41
2022-10-05T04:19:48.463Z,51.25
2022-10-05T04:22:25.497Z,51.37
2022-10-05T04:25:01.422Z,51.24
2022-10-05T04:27:39.288Z,51.49
2022-10-05T04:30:15.411Z,51.65
2022-10-05T04:32:48.222Z,51.64
2022-10-05T04:35:43.299Z,51.71
2022-10-05T04:38:29.671Z,51.62
2022-10-05T04:41:15.614Z,51.48
2022-10-05T04:43:58.726Z,51.53
2022-10-05T04:46:41.030Z,51.63
2022-10-05T04:49:36.475Z,51.58
2022-10-05T04:52:15.107Z,51.62
2022-10-05T04:55:03.518Z,51.50
2022-10-05T04:57:43.290Z,51.59
2022-10-05T05:00:24.576Z,51.44
2022-10-05T05:03:23.912Z,51.44
2022-10-05T05:06:18.391Z,51.41
2022-10-05T05:09:30.202Z,51.58
2022-10-05T05:12:19.323Z,51.30
2022-10-05T05:15:09.866Z,51.29
2022-10-05T05:17:54.795Z,51.55
2022-10-05T05:20:36.687Z,51.65
2022-10-05T05:23:14.841Z,51.73
2022-10-05T05:25:50.622Z,51.67
2022-10-05T05:28:31.491Z,51.48
2022-10-05T05:31:08.415Z,51.45
2022-10-05T05:33:51.680Z,51.62
2022-10-05T05:36:44.995Z,51.63
2022-10-05T05:39:30.563Z,51.37
2022-10-05T05:42:10.461Z,51.33
2022-10-05T05:44:49.180Z,51.39
2022-10-05T05:47:23.297Z,51.51
2022-10-05T05:50:08.561Z,51.62
2022-10-05T05:52:44.473Z,51.81
2022-10-05T05:55:29.050Z,52.07
2022-10-05T05:58:06.779Z,51.96
2022-10-05T06:00:45.518Z,51.99
2022-10-05T06:03:22.000Z,52.00
2022-10-05T06:05:56.757Z,52.08
2022-10-05T06:08:35.925Z,52.20
2022-10-05T06:11:20.851Z,52.16
2022-10-05T06:13:51.044Z,52.10
2022-10-05T06:16:28.335Z,52.12
2022-10-05T06:19:01.320Z,52.18
2022-10-05T06:21:38.488Z,52.10
2022-10-05T06:24:18.464Z,51.92
2022-10-05T06:27:15.565Z,52.03
2022-10-05T06:30:01.657Z,51.97
2022-10-05T06:32:41.027Z,51.67
2022-10-05T06:35:20.750Z,51.73
2022-10-05T06:38:10.554Z,51.85
2022-10-05T06:40:59.231Z,51.60
2022-10-05T06:43:44.198Z,51.51
2022-10-05T06:46:33.402Z,51.54
2022-10-05T06:49:28.311Z,51.63
2022-10-05T06:52:22.498Z,51.80
2022-10-05T06:55:11.843Z,51.56
2022-10-05T06:57:56.377Z,51.30
2022-10-05T07:00:32.725Z,51.45
2022-10-05T07:03:11.338Z,51.53
2022-10-05T07:06:09.027Z,51.61
2022-10-05T07:09:04.549Z,51.39
2022-10-05T07:11:57.305Z,51.39
2022-10-05T07:14:46.085Z,51.54
2022-10-05T07:17:37.363Z,51.43
2022-10-05T07:20:18.536Z,51.45
2022-10-05T07:23:04.489Z,51.24
2022-10-05T07:25:39.777Z,51.38
2022-10-05T07:28:12.648Z,51.17
2022-10-05T07:30:50.905Z,51.39
2022-10-05T07:33:26.842Z,51.22
2022-10-05T07:36:18.257Z,51.15
2022-10-05T07:38:58.859Z,50.75
2022-10-05T07:41:40.222Z,50.74
2022-10-05T07:44:18.712Z,50.72
2022-10-05T07:46:56.807Z,50.24
2022-10-05T07:49:38.809Z,49.72
2022-10-05T07:52:15.227Z,48.96
2022-10-05T07:55:02.449Z,48.54
2022-10-05T07:57:42.112Z,48.48
2022-10-05T08:00:20.750Z,48.15
2022-10-05T08:02:55.536Z,47.35
2022-10-05T08:05:29.622Z,47.49
2022-10-05T08:08:09.347Z,48.02
2022-10-05T08:10:46.352Z,48.10
2022-10-05T08:13:22.644Z,48.29
2022-10-05T08:15:56.442Z,48.16
2022-10-05T08:18:40.720Z,47.99
2022-10-05T08:21:13.954Z,48.28
2022-10-05T08:23:50.038Z,48.39
2022-10-05T08:26:30.892Z,48.24
2022-10-05T08:29:13.929Z,48.75
2022-10-05T08:31:47.281Z,48.94
2022-10-05T08:34:25.918Z,48.52
2022-10-05T08:37:05.124Z,48.62
2022-10-05T08:39:43.990Z,49.04
2022-10-05T08:42:49.433Z,48.50
2022-10-05T08:45:43.725Z,48.40
2022-10-05T08:48:29.280Z,48.53
2022-10-05T08:51:28.282Z,48.41
2022-10-05T08:54:29.502Z,48.51
2022-10-05T08:57:24.676Z,48.44
2022-10-05T09:00:07.907Z,48.57
2022-10-05T09:03:02.496Z,48.50
2022-10-05T09:06:07.431Z,48.51
2022-10-05T09:09:07.460Z,48.08
2022-10-05T09:11:39.099Z,48.16
2022-10-05T09:14:31.039Z,48.10
2022-10-05T09:17:13.769Z,48.18
2022-10-05T09:20:09.194Z,47.79
2022-10-05T09:22:47.585Z,47.83
2022-10-05T09:25:24.937Z,48.15
2022-10-05T09:27:59.416Z,47.98
2022-10-05T09:30:43.644Z,48.08
2022-10-05T09:33:43.507Z,48.17
2022-10-05T09:36:41.730Z,48.30
2022-10-05T09:39:31.864Z,48.84
2022-10-05T09:42:38.021Z,48.89
2022-10-05T09:45:31.262Z,48.95
2022-10-05T09:48:36.566Z,49.38
2022-10-05T09:51:29.202Z,49.03
2022-10-05T09:54:31.529Z,49.01
2022-10-05T09:57:28.140Z,49.03
2022-10-05T10:00:20.944Z,48.86
2022-10-05T10:03:18.627Z,49.12
2022-10-05T10:06:12.818Z,48.63
2022-10-05T10:09:05.161Z,48.51
2022-10-05T10:11:47.086Z,48.05
2022-10-05T10:14:52.336Z,47.81
2022-10-05T10:17:57.967Z,47.78
2022-10-05T10:20:39.099Z,47.63
2022-10-05T10:23:32.337Z,47.67
2022-10-05T10:26:45.022Z,47.20
2022-10-05T10:29:40.471Z,46.63
2022-10-05T10:32:22.088Z,46.89
2022-10-05T10:35:22.787Z,46.78
2022-10-05T10:38:28.713Z,46.67
2022-10-05T10:41:22.955Z,46.26
2022-10-05T10:44:20.337Z,46.12
2022-10-05T10:47:13.828Z,45.91
2022-10-05T10:49:56.464Z,45.46
2022-10-05T10:52:44.876Z,44.90
2022-10-05T10:55:30.307Z,44.87
2022-10-05T10:58:31.627Z,45.36
2022-10-05T11:01:13.894Z,45.17
2022-10-05T11:04:10.399Z,44.71
2022-10-05T11:07:06.627Z,43.22
2022-10-05T11:10:06.467Z,42.58
2022-10-05T11:13:02.811Z,41.48
2022-10-05T11:16:11.639Z,40.66
2022-10-05T11:19:04.862Z,41.24
2022-10-05T11:21:40.819Z,41.40
2022-10-05T11:24:44.291Z,39.73
2022-10-05T11:27:57.500Z,38.32
2022-10-05T11:30:52.513Z,36.03
2022-10-05T11:33:53.649Z,35.63
2022-10-05T11:36:52.441Z,34.76
2022-10-05T11:39:38.873Z,34.47
2022-10-05T11:42:36.456Z,34.08
2022-10-05T11:45:21.923Z,34.00
2022-10-05T11:48:08.059Z,33.36
2022-10-05T11:50:45.687Z,34.05
2022-10-05T11:53:26.170Z,33.48
2022-10-05T11:56:07.966Z,34.47
2022-10-05T11:58:43.297Z,36.20
2022-10-05T12:01:22.531Z,36.93
2022-10-05T12:04:02.468Z,34.49
2022-10-05T12:06:47.030Z,34.45
2022-10-05T12:10:00.680Z,35.75
2022-10-05T12:12:35.997Z,37.82
2022-10-05T12:15:17.534Z,39.27
2022-10-05T12:20:26.976Z,40.13
2022-10-05T12:23:02.437Z,39.58
2022-10-05T12:25:40.762Z,38.95
2022-10-05T12:28:14.975Z,34.40
2022-10-05T12:31:06.548Z,30.12
2022-10-05T12:33:40.487Z,24.94
2022-10-05T12:36:16.907Z,23.42
2022-10-05T12:38:53.188Z,21.67
2022-10-05T12:41:31.914Z,22.53
2022-10-05T12:44:15.848Z,25.22
2022-10-05T12:46:53.849Z,28.03
2022-10-05T12:49:37.257Z,30.92
2022-10-05T12:52:21.117Z,33.38
2022-10-05T12:54:57.823Z,35.44
2022-10-05T12:57:41.039Z,37.15
2022-10-05T13:00:17.744Z,37.72
2022-10-05T13:03:06.583Z,37.11
2022-10-05T13:05:44.114Z,37.87
2022-10-05T13:08:23.940Z,38.73
2022-10-05T13:11:02.188Z,39.41
2022-10-05T13:13:43.799Z,39.75
2022-10-05T13:16:28.061Z,40.03
2022-10-05T13:19:10.343Z,40.49
2022-10-05T13:21:59.355Z,40.95
2022-10-05T13:24:34.314Z,41.02
2022-10-05T13:27:09.248Z,40.98
2022-10-05T13:29:49.012Z,41.58
2022-10-05T13:32:26.339Z,41.54
2022-10-05T13:35:10.588Z,41.73
2022-10-05T13:37:48.670Z,41.62
2022-10-05T13:40:27.387Z,41.87
2022-10-05T13:43:04.713Z,41.62
2022-10-05T13:45:45.423Z,42.27
2022-10-05T13:48:26.943Z,41.93
2022-10-05T13:51:05.354Z,41.47
2022-10-05T13:53:44.571Z,41.45
2022-10-05T13:56:22.824Z,41.70
2022-10-05T13:59:00.487Z,41.55
2022-10-05T14:01:44.277Z,42.15
2022-10-05T14:04:20.623Z,41.98
2022-10-05T14:06:52.570Z,42.13
2022-10-05T14:09:33.525Z,42.64
2022-10-05T14:12:17.003Z,42.62
2022-10-05T14:14:50.552Z,42.60
2022-10-05T14:17:42.419Z,42.14
2022-10-05T14:20:31.084Z,41.68
2022-10-05T14:23:03.690Z,42.28
2022-10-05T14:25:50.340Z,41.86
2022-10-05T14:28:29.517Z,41.76
2022-10-05T14:31:01.552Z,42.13
2022-10-05T14:33:36.586Z,42.13
2022-10-05T14:36:09.185Z,42.18
2022-10-05T14:38:55.072Z,42.76
2022-10-05T14:41:27.980Z,42.62
2022-10-05T14:44:03.617Z,42.96
2022-10-05T14:46:35.360Z,42.75
2022-10-05T14:49:20.454Z,43.01
2022-10-05T14:51:51.032Z,43.21
2022-10-05T14:54:28.501Z,43.17
2022-10-05T14:57:08.081Z,43.24
2022-10-05T14:59:57.406Z,43.75
2022-10-05T15:02:47.994Z,43.57
2022-10-05T15:05:31.402Z,43.53
2022-10-05T15:08:09.017Z,43.64
2022-10-05T15:10:44.424Z,43.72
2022-10-05T15:13:19.141Z,44.04
2022-10-05T15:15:54.820Z,44.00
2022-10-05T15:18:34.963Z,44.35
2022-10-05T15:21:22.615Z,44.39
2022-10-05T15:23:57.580Z,44.28
2022-10-05T15:26:48.636Z,44.38
2022-10-05T15:29:51.328Z,44.31
2022-10-05T15:32:34.403Z,44.29
2022-10-05T15:35:24.826Z,44.10
2022-10-05T15:38:02.696Z,44.21
2022-10-05T15:40:39.806Z,44.26
2022-10-05T15:43:17.038Z,43.83
2022-10-05T15:45:57.210Z,43.42
2022-10-05T15:48:32.233Z,43.72
2022-10-05T15:51:07.214Z,44.02
2022-10-05T15:53:46.619Z,44.25
2022-10-05T15:56:23.345Z,44.12
2022-10-05T15:58:57.007Z,44.36
2022-10-05T16:01:47.254Z,44.30
2022-10-05T16:04:26.140Z,44.32
2022-10-05T16:07:13.741Z,44.27
2022-10-05T16:09:56.227Z,44.44
2022-10-05T16:12:37.342Z,44.48
2022-10-05T16:15:21.757Z,44.50
2022-10-05T16:18:09.234Z,44.57
2022-10-05T16:20:46.308Z,44.90
2022-10-05T16:23:26.427Z,44.73
2022-10-05T16:26:10.157Z,44.77
2022-10-05T16:28:49.950Z,45.04
2022-10-05T16:31:25.058Z,44.93
2022-10-05T16:34:07.348Z,45.07
2022-10-05T16:36:53.231Z,45.13
2022-10-05T16:39:30.245Z,45.27
2022-10-05T16:42:11.881Z,45.54
2022-10-05T16:44:52.492Z,45.54
2022-10-05T16:47:45.907Z,45.67
2022-10-05T16:50:23.497Z,45.89
2022-10-05T16:53:00.502Z,45.99
2022-10-05T16:55:38.205Z,46.31
2022-10-05T16:58:19.581Z,46.19
2022-10-05T17:01:05.490Z,46.12
2022-10-05T17:03:51.364Z,46.51
2022-10-05T17:06:37.132Z,46.51
2022-10-05T17:09:32.257Z,46.85
2022-10-05T17:12:15.664Z,46.86
2022-10-05T17:15:01.408Z,46.95
2022-10-05T17:17:43.476Z,47.00
2022-10-05T17:20:42.471Z,47.47
2022-10-05T17:23:34.432Z,47.22
2022-10-05T17:26:18.890Z,47.35
2022-10-05T17:29:02.747Z,47.38
2022-10-05T17:32:10.789Z,47.24
2022-10-05T17:34:42.037Z,47.45
2022-10-05T17:37:21.078Z,47.51
2022-10-05T17:39:53.661Z,47.36
2022-10-05T17:42:48.124Z,47.79
2022-10-05T17:45:48.064Z,47.66
2022-10-05T17:48:44.560Z,47.93
2022-10-05T17:52:08.192Z,47.73
2022-10-05T17:55:31.207Z,48.10
2022-10-05T17:58:03.652Z,48.01
2022-10-05T18:00:43.926Z,48.23
2022-10-05T18:03:38.957Z,48.52
2022-10-05T18:06:44.740Z,48.57
2022-10-05T18:09:20.981Z,48.60
2022-10-05T18:12:11.521Z,48.36
2022-10-05T18:14:59.299Z,48.60
2022-10-05T18:17:42.127Z,48.63
2022-10-05T18:20:22.435Z,48.73
2022-10-05T18:22:53.778Z,48.65
2022-10-05T18:25:29.483Z,48.59
2022-10-05T18:28:11.537Z,48.62
2022-10-05T18:30:59.169Z,48.97
2022-10-05T18:33:51.961Z,49.15
2022-10-05T18:36:39.975Z,49.38
2022-10-05T18:39:23.388Z,49.40
2022-10-05T18:42:04.557Z,49.54
2022-10-05T18:44:42.203Z,49.47
2022-10-05T18:47:19.924Z,49.60
2022-10-05T18:50:06.137Z,49.76
2022-10-05T18:52:55.160Z,49.66
2022-10-05T18:55:34.641Z,49.99
2022-10-05T18:58:28.738Z,50.05
2022-10-05T19:01:21.374Z,50.12
2022-10-05T19:04:12.677Z,50.04
2022-10-05T19:06:52.059Z,50.15
2022-10-05T19:09:41.355Z,50.61
2022-10-05T19:12:20.874Z,50.51
2022-10-05T19:15:00.800Z,50.80
2022-10-05T19:17:46.169Z,51.01
2022-10-05T19:20:23.785Z,51.32
2022-10-05T19:23:12.488Z,51.04
2022-10-05T19:25:51.298Z,50.98
2022-10-05T19:28:29.372Z,51.00
2022-10-05T19:31:17.977Z,51.15
2022-10-05T19:34:02.126Z,51.13
2022-10-05T19:36:46.815Z,51.27
2022-10-05T19:39:24.210Z,51.03
2022-10-05T19:42:17.398Z,51.13
2022-10-05T19:44:56.043Z,51.22
2022-10-05T19:47:41.110Z,51.60
2022-10-05T19:50:24.590Z,51.35
2022-10-05T19:53:02.433Z,51.37
2022-10-05T19:55:39.695Z,51.46
2022-10-05T19:58:23.398Z,51.43
2022-10-05T20:01:01.216Z,51.50
2022-10-05T20:03:32.461Z,51.62
2022-10-05T20:06:04.158Z,51.38
2022-10-05T20:08:40.622Z,51.81
2022-10-05T20:11:14.160Z,51.39
2022-10-05T20:13:48.392Z,51.37
2022-10-05T20:19:54.822Z,51.36
2022-10-05T20:22:32.953Z,51.54
2022-10-05T20:25:05.773Z,51.40
2022-10-05T20:27:46.628Z,51.38
2022-10-05T20:30:21.189Z,51.47
2022-10-05T20:32:51.035Z,51.26
2022-10-05T20:35:22.459Z,51.46
2022-10-05T20:37:52.700Z,51.52
2022-10-05T20:40:23.065Z,51.56
2022-10-05T20:42:52.888Z,51.60
2022-10-05T20:45:25.498Z,51.59
2022-10-05T20:47:55.427Z,51.71
2022-10-05T20:50:25.180Z,51.82
2022-10-05T20:52:55.047Z,51.64
2022-10-05T20:55:29.202Z,51.78
2022-10-05T20:57:59.080Z,51.94
2022-10-05T21:00:52.094Z,51.95
2022-10-05T21:03:22.179Z,51.98
2022-10-05T21:05:52.067Z,52.01
2022-10-05T21:08:21.810Z,51.94
2022-10-05T21:10:51.568Z,52.12
2022-10-05T21:13:21.294Z,52.55
2022-10-05T21:15:53.833Z,52.39
2022-10-05T21:18:23.651Z,52.54
2022-10-05T21:20:53.435Z,52.41
2022-10-05T21:23:23.143Z,52.57
2022-10-05T21:25:53.115Z,52.74
2022-10-05T21:28:22.906Z,52.70
2022-10-05T21:30:55.476Z,52.67
2022-10-05T21:33:25.564Z,52.52
2022-10-05T21:35:55.714Z,52.46
2022-10-05T21:38:25.993Z,52.56
2022-10-05T21:40:56.046Z,52.49
2022-10-05T21:43:26.389Z,52.60
2022-10-05T21:45:59.205Z,52.68
2022-10-05T21:48:29.393Z,52.63
2022-10-05T21:51:01.052Z,52.56
2022-10-05T21:53:34.713Z,52.59
2022-10-05T21:56:07.288Z,53.09
2022-10-05T21:58:37.726Z,52.68
2022-10-05T22:01:10.162Z,52.67
2022-10-05T22:03:39.930Z,52.96
2022-10-05T22:06:10.635Z,52.87
2022-10-05T22:08:40.403Z,52.69
2022-10-05T22:11:14.945Z,52.85
2022-10-05T22:13:46.589Z,53.07
2022-10-05T22:16:20.371Z,53.01
2022-10-05T22:18:50.626Z,52.94
2022-10-05T22:21:21.136Z,53.07
2022-10-05T22:23:51.255Z,53.06
2022-10-05T22:26:23.485Z,52.99
2022-10-05T22:28:56.419Z,52.96
2022-10-05T22:31:28.932Z,52.89
2022-10-05T22:33:58.744Z,53.09
2022-10-05T22:36:28.913Z,52.91
2022-10-05T22:38:58.640Z,53.06
2022-10-05T22:41:28.520Z,52.79
2022-10-05T22:43:58.288Z,53.04
2022-10-05T22:46:30.787Z,53.03
2022-10-05T22:51:44.445Z,52.86
2022-10-05T22:54:14.189Z,53.17
2022-10-05T22:56:44.128Z,53.18
2022-10-05T22:59:13.944Z,53.09
2022-10-05T23:01:46.447Z,53.16
2022-10-05T23:04:16.252Z,52.98
2022-10-05T23:06:45.973Z,53.28
2022-10-05T23:09:15.711Z,53.31
2022-10-05T23:11:46.696Z,53.17
2022-10-05T23:14:16.891Z,53.25
2022-10-05T23:16:50.222Z,53.47
2022-10-05T23:19:20.007Z,53.38
2022-10-05T23:21:49.795Z,53.71
2022-10-05T23:24:19.511Z,53.95
2022-10-05T23:26:49.357Z,53.86
2022-10-05T23:29:19.185Z,53.90
2022-10-05T23:31:51.500Z,54.26
2022-10-05T23:34:21.269Z,54.25
2022-10-05T23:36:51.052Z,54.35
2022-10-05T23:39:20.937Z,54.25
2022-10-05T23:41:50.833Z,54.41
2022-10-05T23:44:20.620Z,54.46
2022-10-05T23:46:52.955Z,54.48
2022-10-05T23:49:23.176Z,54.64
2022-10-05T23:51:52.893Z,54.69
2022-10-05T23:54:22.605Z,54.52
2022-10-05T23:56:52.358Z,54.33
2022-10-05T23:59:22.205Z,54.58
